Time;durP1;ratioP1;P1;durP2;ratioP2;P2;SDS_P1;SDS_P2;PMS_P1;PMS_P2;Temp;Humidity;BMP_temperature;BMP_pressure;BME280_temperature;BME280_humidity;BME280_pressure;Samples;Min_cycle;Max_cycle;Signal;HPM_P1;HPM_P2
2022/07/17 00:02:03;;;;;;;2.78;0.90;;;19.20;90.90;;;;;;4999030;28;20057;-92
2022/07/17 00:04:29;;;;;;;3.58;0.95;;;19.20;91.10;;;;;;5007453;28;20041;-90
2022/07/17 00:06:55;;;;;;;5.78;1.25;;;19.20;91.30;;;;;;5011388;28;20072;-91
2022/07/17 00:09:21;;;;;;;4.90;1.33;;;19.10;91.60;;;;;;5028185;28;20029;-92
2022/07/17 00:11:46;;;;;;;4.72;1.15;;;19.10;91.10;;;;;;5030586;28;20047;-92
2022/07/17 00:14:12;;;;;;;5.03;1.45;;;19.00;90.80;;;;;;5006588;28;20030;-90
2022/07/17 00:16:38;;;;;;;4.95;1.10;;;19.00;91.10;;;;;;5016649;28;20032;-90
2022/07/17 00:19:03;;;;;;;4.85;1.40;;;19.00;91.40;;;;;;5005976;28;20097;-91
2022/07/17 00:21:29;;;;;;;6.97;1.40;;;18.90;91.50;;;;;;5025750;28;20029;-91
2022/07/17 00:23:55;;;;;;;4.97;1.38;;;18.90;91.70;;;;;;5037434;28;20025;-91
2022/07/17 00:26:21;;;;;;;5.45;1.20;;;18.90;92.40;;;;;;4992990;28;20428;-92
2022/07/17 00:28:46;;;;;;;3.35;1.20;;;18.90;91.90;;;;;;4985335;28;20025;-91
2022/07/17 00:31:12;;;;;;;6.10;1.80;;;18.80;91.70;;;;;;5000085;28;20026;-91
2022/07/17 00:33:38;;;;;;;4.85;1.60;;;18.80;91.70;;;;;;5017559;28;20026;-90
2022/07/17 00:36:04;;;;;;;4.05;1.30;;;18.80;91.80;;;;;;4999106;28;20117;-91
2022/07/17 00:38:30;;;;;;;4.05;1.25;;;18.70;91.70;;;;;;5003352;28;20026;-91
2022/07/17 00:40:56;;;;;;;5.68;1.40;;;18.70;91.70;;;;;;4984127;28;20041;-91
2022/07/17 00:43:23;;;;;;;3.95;1.20;;;18.70;92.00;;;;;;4995300;28;20029;-91
2022/07/17 00:46:03;;;;;;;5.90;1.35;;;18.60;92.40;;;;;;5022310;28;20041;-91
2022/07/17 00:48:28;;;;;;;6.07;1.33;;;18.60;92.40;;;;;;5018628;28;20025;-91
2022/07/17 00:50:55;;;;;;;4.97;1.40;;;18.60;92.40;;;;;;5018453;28;20025;-91
2022/07/17 00:53:21;;;;;;;4.88;1.23;;;18.60;92.30;;;;;;5005271;28;20022;-92
2022/07/17 00:55:49;;;;;;;2.78;1.42;;;18.50;92.30;;;;;;5006821;28;20021;-91
2022/07/17 00:58:23;;;;;;;3.08;1.17;;;18.60;92.40;;;;;;5002702;28;20036;-91
2022/07/17 01:00:51;;;;;;;5.15;1.30;;;18.50;92.50;;;;;;5023518;28;20372;-91
2022/07/17 01:03:18;;;;;;;5.03;1.27;;;18.40;92.50;;;;;;5014145;28;20010;-91
2022/07/17 01:05:44;;;;;;;3.67;1.30;;;18.40;92.70;;;;;;5025154;28;20010;-91
2022/07/17 01:08:10;;;;;;;6.88;1.40;;;18.40;92.70;;;;;;5018990;28;20110;-91
2022/07/17 01:10:36;;;;;;;7.55;2.03;;;18.40;92.50;;;;;;5020937;28;20029;-91
2022/07/17 01:13:02;;;;;;;5.45;1.20;;;18.30;92.60;;;;;;4990918;28;20030;-90
2022/07/17 01:15:29;;;;;;;10.50;1.58;;;18.30;92.70;;;;;;4998405;28;20023;-91
2022/07/17 01:17:55;;;;;;;6.55;1.92;;;18.30;92.60;;;;;;4997321;28;20469;-91
2022/07/17 01:20:21;;;;;;;8.70;1.55;;;18.20;92.90;;;;;;4998484;28;20034;-90
2022/07/17 01:22:51;;;;;;;3.88;1.30;;;18.20;93.00;;;;;;4997007;28;20053;-89
2022/07/17 01:25:19;;;;;;;5.07;1.20;;;18.20;92.80;;;;;;5014163;28;20021;-90
2022/07/17 01:27:45;;;;;;;5.25;1.65;;;18.10;92.70;;;;;;5017209;28;20292;-91
2022/07/17 01:30:11;;;;;;;7.47;2.15;;;18.10;92.80;;;;;;4991635;28;20030;-90
2022/07/17 01:32:40;;;;;;;5.30;1.50;;;18.10;93.10;;;;;;4996590;28;20017;-90
2022/07/17 01:35:07;;;;;;;5.32;1.48;;;18.10;93.10;;;;;;5024280;28;20503;-89
2022/07/17 01:37:33;;;;;;;3.58;1.10;;;18.00;93.40;;;;;;5018435;28;20022;-90
2022/07/17 01:39:59;;;;;;;4.47;1.30;;;18.00;93.50;;;;;;4998705;28;20018;-90
2022/07/17 01:42:26;;;;;;;6.25;1.67;;;17.90;93.40;;;;;;5014344;28;20031;-90
2022/07/17 01:44:53;;;;;;;5.40;1.60;;;17.90;93.60;;;;;;5004967;28;20021;-90
2022/07/17 01:47:20;;;;;;;8.30;1.80;;;17.90;93.50;;;;;;4999651;28;20033;-90
2022/07/17 01:49:52;;;;;;;3.55;1.20;;;17.90;93.50;;;;;;4998088;28;22060;-91
2022/07/17 01:52:18;;;;;;;4.63;1.35;;;17.80;93.50;;;;;;5013998;28;20030;-90
2022/07/17 01:54:44;;;;;;;6.25;1.25;;;17.80;93.30;;;;;;5011341;28;20032;-91
2022/07/17 01:57:31;;;;;;;5.28;1.40;;;17.70;93.30;;;;;;5015741;28;20034;-91
2022/07/17 01:59:57;;;;;;;5.60;1.73;;;17.70;93.50;;;;;;5000787;28;20037;-92
2022/07/17 02:02:22;;;;;;;3.88;1.50;;;17.70;93.50;;;;;;4987820;28;20027;-91
2022/07/17 02:04:48;;;;;;;2.30;1.15;;;17.60;93.50;;;;;;5019114;28;20456;-91
2022/07/17 02:07:14;;;;;;;3.05;1.15;;;17.60;93.80;;;;;;4983494;28;20044;-91
2022/07/17 02:09:39;;;;;;;3.92;1.20;;;17.60;94.00;;;;;;4986812;28;20022;-90
2022/07/17 02:12:06;;;;;;;3.92;1.33;;;17.60;94.00;;;;;;4980812;28;20034;-90
2022/07/17 02:14:32;;;;;;;4.30;1.17;;;17.60;94.20;;;;;;5019752;28;20044;-91
2022/07/17 02:16:58;;;;;;;4.80;1.90;;;17.50;94.20;;;;;;5002660;28;20323;-90
2022/07/17 02:19:23;;;;;;;5.32;1.35;;;17.50;94.00;;;;;;5002670;28;20488;-91
2022/07/17 02:21:49;;;;;;;7.25;1.52;;;17.50;94.10;;;;;;5003783;28;20017;-91
2022/07/17 02:24:15;;;;;;;3.78;1.20;;;17.50;94.10;;;;;;4988489;28;20038;-91
2022/07/17 02:26:42;;;;;;;6.70;1.33;;;17.40;94.00;;;;;;4978199;28;20068;-91
2022/07/17 02:29:07;;;;;;;5.72;1.45;;;17.40;94.00;;;;;;5014900;28;20030;-90
2022/07/17 02:31:33;;;;;;;5.05;1.30;;;17.30;94.20;;;;;;4991170;28;20029;-91
2022/07/17 02:33:59;;;;;;;3.53;1.10;;;17.30;94.30;;;;;;4999023;28;20060;-91
2022/07/17 02:36:24;;;;;;;5.78;1.40;;;17.30;94.30;;;;;;4994326;28;20026;-90
2022/07/17 02:38:51;;;;;;;4.60;1.55;;;17.30;94.00;;;;;;5003742;28;20475;-91
2022/07/17 02:41:17;;;;;;;4.47;1.40;;;17.30;93.60;;;;;;5023318;28;20033;-91
2022/07/17 02:43:43;;;;;;;7.25;1.83;;;17.20;93.50;;;;;;5018061;28;20016;-91
2022/07/17 02:46:08;;;;;;;4.38;1.65;;;17.20;93.40;;;;;;5008081;28;20022;-91
2022/07/17 02:48:34;;;;;;;4.13;1.02;;;17.20;93.50;;;;;;4999703;28;20033;-91
2022/07/17 02:51:00;;;;;;;3.78;1.10;;;17.10;93.40;;;;;;5022203;28;20373;-91
2022/07/17 02:53:26;;;;;;;4.45;1.50;;;17.10;93.20;;;;;;5001845;28;20048;-91
2022/07/17 02:55:52;;;;;;;5.28;1.55;;;17.00;93.20;;;;;;5017567;28;20033;-91
2022/07/17 02:58:18;;;;;;;4.18;1.27;;;17.00;93.10;;;;;;4981764;28;20470;-91
2022/07/17 03:00:43;;;;;;;4.65;1.25;;;17.00;93.10;;;;;;4996487;28;20065;-91
2022/07/17 03:03:09;;;;;;;4.72;1.40;;;17.00;93.00;;;;;;5000917;28;20076;-91
2022/07/17 03:05:35;;;;;;;5.60;1.45;;;16.90;92.90;;;;;;5017004;28;20441;-91
2022/07/17 03:08:00;;;;;;;3.47;1.20;;;16.90;93.00;;;;;;4973715;28;20042;-91
2022/07/17 03:10:26;;;;;;;5.45;1.48;;;16.80;93.30;;;;;;4992125;28;20018;-91
2022/07/17 03:12:52;;;;;;;7.03;1.65;;;16.80;93.40;;;;;;4962287;28;20031;-91
2022/07/17 03:15:17;;;;;;;3.88;1.30;;;16.80;93.50;;;;;;4959573;28;20030;-90
2022/07/17 03:17:43;;;;;;;4.57;1.40;;;16.70;93.60;;;;;;4974278;28;20034;-91
2022/07/17 03:20:10;;;;;;;5.38;1.38;;;16.70;94.00;;;;;;4955263;28;20042;-91
2022/07/17 03:22:36;;;;;;;5.40;1.70;;;16.70;94.30;;;;;;4972273;28;20023;-90
2022/07/17 03:25:02;;;;;;;5.68;1.63;;;16.70;94.40;;;;;;4970931;28;20487;-91
2022/07/17 03:27:28;;;;;;;4.57;1.30;;;16.60;94.50;;;;;;4969058;28;20058;-91
2022/07/17 03:29:54;;;;;;;5.10;1.50;;;16.60;94.50;;;;;;4972707;28;20423;-91
2022/07/17 03:32:21;;;;;;;6.20;1.70;;;16.70;94.30;;;;;;4962661;28;20263;-91
2022/07/17 03:34:47;;;;;;;4.25;1.27;;;16.60;94.30;;;;;;4989794;28;20054;-91
2022/07/17 03:37:12;;;;;;;4.93;1.60;;;16.60;94.60;;;;;;4993429;28;20045;-92
2022/07/17 03:39:38;;;;;;;5.43;1.50;;;16.60;94.70;;;;;;4992558;28;20030;-91
2022/07/17 03:42:04;;;;;;;4.20;1.25;;;16.60;94.80;;;;;;4978209;28;20031;-91
2022/07/17 03:44:29;;;;;;;5.45;1.40;;;16.60;94.70;;;;;;4960911;28;20015;-91
2022/07/17 03:46:55;;;;;;;4.85;1.70;;;16.50;94.70;;;;;;4989180;28;20113;-91
2022/07/17 03:49:21;;;;;;;4.80;1.60;;;16.50;94.50;;;;;;4971816;28;20045;-91
2022/07/17 03:51:47;;;;;;;5.32;1.52;;;16.50;94.40;;;;;;4975036;28;20030;-91
2022/07/17 03:54:13;;;;;;;4.85;1.60;;;16.40;94.30;;;;;;4974396;28;20051;-91
2022/07/17 03:56:38;;;;;;;7.18;1.70;;;16.40;94.30;;;;;;4978914;28;20018;-91
2022/07/17 03:59:04;;;;;;;5.63;1.55;;;16.40;94.50;;;;;;4967487;28;20385;-91
2022/07/17 04:01:30;;;;;;;4.88;1.40;;;16.40;94.50;;;;;;4998280;28;20443;-91
2022/07/17 04:03:55;;;;;;;3.55;1.23;;;16.30;94.60;;;;;;4966224;28;20042;-90
2022/07/17 04:06:21;;;;;;;9.63;1.52;;;16.30;94.50;;;;;;4982273;28;20506;-91
2022/07/17 04:08:47;;;;;;;5.13;1.58;;;16.30;94.40;;;;;;4991317;28;20173;-91
2022/07/17 04:11:12;;;;;;;6.10;1.85;;;16.20;94.40;;;;;;4996574;28;20117;-91
2022/07/17 04:13:38;;;;;;;6.50;1.80;;;16.20;94.70;;;;;;4995276;28;20025;-90
2022/07/17 04:16:05;;;;;;;9.77;1.67;;;16.20;94.60;;;;;;4996610;28;20149;-91
2022/07/17 04:18:33;;;;;;;4.70;1.45;;;16.20;94.60;;;;;;4997251;28;20022;-90
2022/07/17 04:21:07;;;;;;;4.35;1.40;;;16.10;94.90;;;;;;5012269;28;20037;-90
2022/07/17 04:23:34;;;;;;;3.72;1.40;;;16.10;95.00;;;;;;5012442;28;20018;-91
2022/07/17 04:25:59;;;;;;;6.05;1.85;;;16.10;95.30;;;;;;5010684;28;20030;-91
2022/07/17 04:28:25;;;;;;;6.32;1.70;;;16.10;95.40;;;;;;5005957;28;20373;-91
2022/07/17 04:30:51;;;;;;;6.85;1.70;;;16.10;95.60;;;;;;4975046;28;20105;-91
2022/07/17 04:33:17;;;;;;;6.32;2.30;;;16.10;96.00;;;;;;4992636;28;20022;-91
2022/07/17 04:35:42;;;;;;;3.95;1.40;;;16.10;96.30;;;;;;4994920;28;20109;-90
2022/07/17 04:38:09;;;;;;;5.75;1.85;;;16.10;96.50;;;;;;4998416;28;20050;-91
2022/07/17 04:40:37;;;;;;;5.35;1.73;;;16.10;96.70;;;;;;5012826;28;20030;-90
2022/07/17 04:43:04;;;;;;;11.07;2.10;;;16.10;96.90;;;;;;5016714;28;20025;-91
2022/07/17 04:45:30;;;;;;;7.05;1.80;;;16.10;96.90;;;;;;5006055;28;20010;-92
2022/07/17 04:47:56;;;;;;;6.90;1.73;;;16.10;96.90;;;;;;4995371;28;20527;-90
2022/07/17 04:50:22;;;;;;;6.57;2.03;;;16.10;96.90;;;;;;4996521;28;20030;-90
2022/07/17 04:52:47;;;;;;;4.95;1.75;;;16.10;97.00;;;;;;4997489;28;20167;-91
2022/07/17 04:55:14;;;;;;;6.38;1.83;;;16.20;97.00;;;;;;5009010;28;20062;-91
2022/07/17 04:57:39;;;;;;;6.00;1.75;;;16.20;97.10;;;;;;5009894;28;20030;-91
2022/07/17 05:00:07;;;;;;;6.00;1.75;;;16.20;97.50;;;;;;4991697;28;20251;-91
2022/07/17 05:02:33;;;;;;;11.98;2.05;;;16.20;97.20;;;;;;5005299;28;20094;-91
2022/07/17 05:05:00;;;;;;;8.35;2.08;;;16.20;97.30;;;;;;4995081;28;20036;-91
2022/07/17 05:07:26;;;;;;;6.88;2.17;;;16.20;97.40;;;;;;5006764;28;20132;-91
2022/07/17 05:09:52;;;;;;;5.07;1.60;;;16.20;97.60;;;;;;5013374;28;20028;-90
2022/07/17 05:12:18;;;;;;;4.45;1.80;;;16.20;97.80;;;;;;4990280;28;20022;-91
2022/07/17 05:14:43;;;;;;;4.47;1.67;;;16.30;97.80;;;;;;5006566;28;20030;-91
2022/07/17 05:17:09;;;;;;;7.50;1.98;;;16.30;97.90;;;;;;4981825;28;20030;-90
2022/07/17 05:19:35;;;;;;;7.60;1.75;;;16.30;97.90;;;;;;4992629;28;20034;-90
2022/07/17 05:22:01;;;;;;;6.50;1.83;;;16.30;97.90;;;;;;4994358;28;20018;-89
2022/07/17 05:24:27;;;;;;;3.65;1.45;;;16.30;98.00;;;;;;5007918;28;20061;-90
2022/07/17 05:26:53;;;;;;;4.22;1.85;;;16.30;98.10;;;;;;5008295;28;20468;-89
2022/07/17 05:29:19;;;;;;;7.40;2.40;;;16.30;98.20;;;;;;5011652;28;20081;-90
2022/07/17 05:31:45;;;;;;;7.53;1.88;;;16.30;98.30;;;;;;5012712;28;20476;-91
2022/07/17 05:34:11;;;;;;;7.22;1.95;;;16.40;98.30;;;;;;4985799;28;20022;-91
2022/07/17 05:36:37;;;;;;;4.53;1.58;;;16.40;98.40;;;;;;4995730;28;20022;-89
2022/07/17 05:39:02;;;;;;;10.18;2.45;;;16.40;98.30;;;;;;4999972;28;20014;-90
2022/07/17 05:41:28;;;;;;;5.72;1.90;;;16.40;98.20;;;;;;5006305;28;20042;-91
2022/07/17 05:43:54;;;;;;;6.95;1.92;;;16.40;98.20;;;;;;5006490;28;20068;-91
2022/07/17 05:46:19;;;;;;;6.55;1.67;;;16.50;98.30;;;;;;4987582;28;20022;-91
2022/07/17 05:48:45;;;;;;;6.93;1.77;;;16.50;98.60;;;;;;4989150;28;20030;-91
2022/07/17 05:51:11;;;;;;;7.32;1.90;;;16.50;98.40;;;;;;4991483;28;20029;-91
2022/07/17 05:53:36;;;;;;;5.43;1.67;;;16.50;98.30;;;;;;4993115;28;20061;-91
2022/07/17 05:56:02;;;;;;;7.03;1.88;;;16.50;98.00;;;;;;4995233;28;20046;-91
2022/07/17 05:58:28;;;;;;;8.13;2.20;;;16.50;97.90;;;;;;5006507;28;20041;-90
2022/07/17 06:00:54;;;;;;;7.30;1.63;;;16.60;98.00;;;;;;5009711;28;20026;-90
2022/07/17 06:03:19;;;;;;;5.80;1.50;;;16.60;97.80;;;;;;4989549;28;20023;-90
2022/07/17 06:05:45;;;;;;;6.20;1.70;;;16.60;97.70;;;;;;4988282;28;20498;-90
2022/07/17 06:08:11;;;;;;;8.45;1.45;;;16.60;97.60;;;;;;4990796;28;20489;-91
2022/07/17 06:10:38;;;;;;;7.47;1.90;;;16.60;97.40;;;;;;4986267;28;20030;-90
2022/07/17 06:13:04;;;;;;;5.40;1.60;;;16.70;97.30;;;;;;4972839;28;20019;-90
2022/07/17 06:15:30;;;;;;;4.68;1.58;;;16.70;97.30;;;;;;4983265;28;20123;-90
2022/07/17 06:18:03;;;;;;;5.25;1.40;;;16.70;97.10;;;;;;4971743;28;20022;-91
2022/07/17 06:20:30;;;;;;;7.80;1.88;;;16.80;97.30;;;;;;4987210;28;20038;-90
2022/07/17 06:22:56;;;;;;;8.50;2.38;;;16.80;97.50;;;;;;4991140;28;20022;-90
2022/07/17 06:25:22;;;;;;;4.05;1.48;;;16.80;97.50;;;;;;4990371;28;20033;-90
2022/07/17 06:27:47;;;;;;;5.68;1.63;;;16.80;97.40;;;;;;4985699;28;20026;-90
2022/07/17 06:30:14;;;;;;;3.53;1.60;;;16.90;97.40;;;;;;4966278;28;20139;-90
2022/07/17 06:32:40;;;;;;;6.88;2.13;;;16.90;97.40;;;;;;4985542;28;20026;-90
2022/07/17 06:35:07;;;;;;;5.45;1.20;;;17.00;97.40;;;;;;4989410;28;20038;-90
2022/07/17 06:37:33;;;;;;;5.10;1.52;;;17.00;97.40;;;;;;4991277;28;20042;-90
2022/07/17 06:39:59;;;;;;;5.53;1.20;;;17.10;96.90;;;;;;4987363;28;20049;-91
2022/07/17 06:42:28;;;;;;;7.28;1.48;;;17.10;96.80;;;;;;4991368;28;20029;-90
2022/07/17 06:44:53;;;;;;;3.45;1.30;;;17.10;96.90;;;;;;4992458;28;20496;-90
2022/07/17 06:47:19;;;;;;;4.70;1.30;;;17.20;97.00;;;;;;4989216;28;20026;-91
2022/07/17 06:49:45;;;;;;;5.93;1.48;;;17.20;97.00;;;;;;4988750;28;20038;-90
2022/07/17 06:52:10;;;;;;;5.65;1.50;;;17.30;96.80;;;;;;4974460;28;20030;-90
2022/07/17 06:54:36;;;;;;;4.07;1.50;;;17.30;96.80;;;;;;4997367;28;20038;-89
2022/07/17 06:57:02;;;;;;;4.13;1.48;;;17.40;96.90;;;;;;4992699;28;20046;-90
2022/07/17 06:59:28;;;;;;;6.93;1.73;;;17.40;96.70;;;;;;4993927;28;20497;-90
2022/07/17 07:01:53;;;;;;;4.40;1.48;;;17.50;96.40;;;;;;4991327;28;20022;-91
2022/07/17 07:04:19;;;;;;;5.20;1.42;;;17.50;96.20;;;;;;4991606;28;20445;-90
2022/07/17 07:06:45;;;;;;;4.45;1.40;;;17.60;96.40;;;;;;4977677;28;20125;-90
2022/07/17 07:09:13;;;;;;;4.32;1.40;;;17.70;95.70;;;;;;5007812;28;20603;-90
2022/07/17 07:11:39;;;;;;;6.53;1.33;;;17.70;95.30;;;;;;4993233;28;20030;-91
2022/07/17 07:14:06;;;;;;;5.53;1.35;;;17.80;95.30;;;;;;5009695;28;20041;-90
2022/07/17 07:16:32;;;;;;;4.68;1.40;;;17.80;95.40;;;;;;5011557;28;20018;-90
2022/07/17 07:18:58;;;;;;;5.28;1.70;;;17.90;95.50;;;;;;4996212;28;20033;-90
2022/07/17 07:21:25;;;;;;;5.15;1.73;;;18.00;95.50;;;;;;4997231;28;20104;-90
2022/07/17 07:23:51;;;;;;;6.88;1.30;;;18.00;95.40;;;;;;4991193;28;20026;-89
2022/07/17 07:26:17;;;;;;;4.60;1.38;;;18.10;95.20;;;;;;4996926;28;20029;-89
2022/07/17 07:28:42;;;;;;;5.90;1.40;;;18.20;95.30;;;;;;4994133;28;20492;-91
2022/07/17 07:31:08;;;;;;;3.85;1.10;;;18.20;94.90;;;;;;5000328;28;20022;-90
2022/07/17 07:33:34;;;;;;;3.72;1.25;;;18.30;94.80;;;;;;4994580;28;20475;-91
2022/07/17 07:36:00;;;;;;;4.78;1.40;;;18.40;94.90;;;;;;5011751;28;20113;-90
2022/07/17 07:38:25;;;;;;;7.03;1.42;;;18.50;94.60;;;;;;5010334;28;20018;-91
2022/07/17 07:40:51;;;;;;;4.47;1.38;;;18.50;94.70;;;;;;5011489;28;20072;-91
2022/07/17 07:43:17;;;;;;;6.10;1.38;;;18.60;94.30;;;;;;5007939;28;20306;-91
2022/07/17 07:45:42;;;;;;;6.82;1.33;;;18.70;94.00;;;;;;4974501;28;20026;-92
2022/07/17 07:48:08;;;;;;;9.27;1.67;;;18.70;94.00;;;;;;5014339;28;20060;-91
2022/07/17 07:50:34;;;;;;;4.82;1.20;;;18.80;93.90;;;;;;5009345;28;20499;-91
2022/07/17 07:52:59;;;;;;;7.13;1.85;;;18.90;93.50;;;;;;5004403;28;20030;-92
2022/07/17 07:55:25;;;;;;;9.15;1.50;;;19.00;92.90;;;;;;5008637;28;20026;-91
2022/07/17 07:58:02;;;;;;;6.32;1.45;;;19.00;92.50;;;;;;4992836;28;20034;-91
2022/07/17 08:00:28;;;;;;;5.43;1.20;;;19.10;92.00;;;;;;5009165;28;20022;-91
2022/07/17 08:02:53;;;;;;;6.57;1.35;;;19.10;91.90;;;;;;5001172;28;20033;-91
2022/07/17 08:05:19;;;;;;;3.60;1.33;;;19.20;91.90;;;;;;4993768;28;20133;-92
2022/07/17 08:07:45;;;;;;;6.95;1.40;;;19.20;91.70;;;;;;4988740;28;20065;-91
2022/07/17 08:10:10;;;;;;;5.20;1.15;;;19.30;91.50;;;;;;4957112;28;20041;-91
2022/07/17 08:12:36;;;;;;;7.43;1.52;;;19.40;91.60;;;;;;4975636;28;20038;-91
2022/07/17 08:15:04;;;;;;;4.70;1.45;;;19.50;92.20;;;;;;4975956;28;20113;-91
2022/07/17 08:17:29;;;;;;;4.78;1.20;;;19.60;92.20;;;;;;4988787;28;20381;-92
2022/07/17 08:19:55;;;;;;;4.72;1.30;;;19.70;91.70;;;;;;4993530;28;20038;-89
2022/07/17 08:22:21;;;;;;;7.75;1.83;;;19.70;91.50;;;;;;5049936;23;20136;-83
2022/07/17 08:24:46;;;;;;;4.65;1.42;;;19.90;91.40;;;;;;5004788;28;20108;-80
2022/07/17 08:27:12;;;;;;;3.60;1.10;;;19.90;91.50;;;;;;4989963;28;20026;-81
2022/07/17 08:29:38;;;;;;;6.97;1.40;;;20.00;91.20;;;;;;4991465;28;20554;-81
2022/07/17 08:32:04;;;;;;;5.30;1.30;;;20.10;90.90;;;;;;4990939;28;20445;-83
2022/07/17 08:34:29;;;;;;;5.75;1.45;;;20.20;90.70;;;;;;4990050;28;20053;-82
2022/07/17 08:36:55;;;;;;;5.65;1.63;;;20.20;90.80;;;;;;4990287;28;20030;-80
2022/07/17 08:39:20;;;;;;;7.47;1.73;;;20.30;90.60;;;;;;4989289;28;20030;-80
2022/07/17 08:41:46;;;;;;;4.93;1.50;;;20.40;90.30;;;;;;5011449;28;20446;-83
2022/07/17 08:44:12;;;;;;;5.32;1.20;;;20.50;90.10;;;;;;5006415;28;20034;-83
2022/07/17 08:46:39;;;;;;;7.25;2.42;;;20.50;89.60;;;;;;4989457;28;20026;-83
2022/07/17 08:49:07;;;;;;;5.55;1.45;;;20.60;88.80;;;;;;5022412;28;20011;-82
2022/07/17 08:51:34;;;;;;;4.22;1.38;;;20.70;89.00;;;;;;5007857;28;20038;-82
2022/07/17 08:53:59;;;;;;;5.75;1.40;;;20.80;90.00;;;;;;5025415;28;20030;-84
2022/07/17 08:56:26;;;;;;;6.05;1.30;;;20.90;89.40;;;;;;4996949;28;20100;-83
2022/07/17 08:58:53;;;;;;;4.45;1.40;;;20.90;87.70;;;;;;5008827;28;20084;-84
2022/07/17 09:01:19;;;;;;;4.45;1.38;;;21.00;87.40;;;;;;4991189;28;20096;-81
2022/07/17 09:04:12;;;;;;;3.42;1.25;;;21.00;86.90;;;;;;5006955;28;20484;-80
2022/07/17 09:06:37;;;;;;;5.47;1.33;;;21.10;87.00;;;;;;4989604;28;20072;-83
2022/07/17 09:09:09;;;;;;;6.05;1.50;;;21.20;86.60;;;;;;4990832;28;20026;-84
2022/07/17 09:11:50;;;;;;;6.18;1.50;;;21.30;85.50;;;;;;5006032;28;20050;-82
2022/07/17 09:14:18;;;;;;;4.00;1.30;;;21.40;85.00;;;;;;5005176;28;20038;-83
2022/07/17 09:17:04;;;;;;;6.03;1.30;;;21.40;84.40;;;;;;4991513;28;20023;-83
2022/07/17 09:19:35;;;;;;;7.72;1.60;;;21.50;84.30;;;;;;4989621;28;20010;-84
2022/07/17 09:22:05;;;;;;;5.05;1.30;;;21.60;83.80;;;;;;5000607;28;21953;-82
2022/07/17 09:24:48;;;;;;;3.95;1.30;;;21.70;83.50;;;;;;5009453;28;20034;-84
2022/07/17 09:27:28;;;;;;;4.97;1.67;;;21.70;83.00;;;;;;5007432;28;20021;-83
2022/07/17 09:29:58;;;;;;;5.38;1.83;;;21.80;82.60;;;;;;5008976;28;20109;-83
2022/07/17 09:32:26;;;;;;;4.13;1.38;;;21.80;82.60;;;;;;5014884;28;20041;-85
2022/07/17 09:34:54;;;;;;;4.78;1.40;;;21.90;82.40;;;;;;5024663;28;20021;-83
2022/07/17 09:37:23;;;;;;;5.85;1.40;;;21.90;82.20;;;;;;5014280;28;20024;-83
2022/07/17 09:39:49;;;;;;;5.70;1.45;;;22.00;82.70;;;;;;5015796;28;20050;-84
2022/07/17 09:42:26;;;;;;;9.00;1.80;;;22.10;82.00;;;;;;5002075;28;20017;-85
2022/07/17 09:44:56;;;;;;;5.57;1.67;;;22.10;82.10;;;;;;5009949;28;20022;-84
2022/07/17 09:47:24;;;;;;;7.53;2.25;;;22.20;80.70;;;;;;5009252;28;20131;-83
2022/07/17 09:49:54;;;;;;;4.93;1.40;;;22.30;80.10;;;;;;5012999;28;20386;-93
2022/07/17 09:52:22;;;;;;;6.15;1.63;;;22.30;80.60;;;;;;4999625;28;20049;-93
2022/07/17 09:54:48;;;;;;;3.25;1.30;;;22.40;80.20;;;;;;5009720;28;20018;-93
2022/07/17 09:57:15;;;;;;;3.53;1.33;;;22.50;79.70;;;;;;5002717;28;20080;-94
2022/07/17 09:59:42;;;;;;;3.90;1.23;;;22.50;78.80;;;;;;5015005;28;20022;-94
2022/07/17 10:02:14;;;;;;;3.70;1.13;;;22.60;77.20;;;;;;5013813;28;20022;-93
2022/07/17 10:04:40;;;;;;;7.40;1.52;;;22.60;76.70;;;;;;5012795;28;20034;-94
2022/07/17 10:07:08;;;;;;;3.72;1.13;;;22.70;76.40;;;;;;5018294;28;20018;-93
2022/07/17 10:09:35;;;;;;;6.18;1.52;;;22.70;76.90;;;;;;5019782;28;20091;-93
2022/07/17 10:12:03;;;;;;;5.35;1.50;;;22.80;76.10;;;;;;5028263;28;20030;-95
2022/07/17 10:14:29;;;;;;;4.95;1.42;;;22.80;74.90;;;;;;5020596;28;20364;-93
2022/07/17 10:17:06;;;;;;;3.75;1.00;;;22.90;73.30;;;;;;5011273;28;20105;-93
2022/07/17 10:19:32;;;;;;;5.05;1.60;;;22.90;72.50;;;;;;5005410;28;20026;-92
2022/07/17 10:22:05;;;;;;;5.20;1.55;;;23.00;72.00;;;;;;5011252;28;20046;-92
2022/07/17 10:24:32;;;;;;;4.28;1.20;;;23.00;71.60;;;;;;5015100;28;20026;-93
2022/07/17 10:26:59;;;;;;;4.50;1.30;;;23.00;71.80;;;;;;5010080;28;20018;-94
2022/07/17 10:29:30;;;;;;;5.82;1.20;;;23.10;72.20;;;;;;5009050;28;20038;-93
2022/07/17 10:31:57;;;;;;;5.35;1.48;;;23.10;71.80;;;;;;5011638;28;20052;-93
2022/07/17 10:34:47;;;;;;;4.07;1.10;;;23.20;71.60;;;;;;5021815;28;20033;-94
2022/07/17 10:37:20;;;;;;;4.43;1.40;;;23.30;71.70;;;;;;5009389;28;20032;-91
2022/07/17 10:40:00;;;;;;;2.55;1.20;;;23.30;70.90;;;;;;5000919;28;20118;-93
2022/07/17 10:42:56;;;;;;;4.10;1.63;;;23.30;69.20;;;;;;5016544;28;20376;-93
2022/07/17 10:45:24;;;;;;;5.55;1.52;;;23.40;67.60;;;;;;5008248;28;20034;-92
2022/07/17 10:47:53;;;;;;;6.03;1.50;;;23.40;68.10;;;;;;5024893;28;20082;-93
2022/07/17 10:50:23;;;;;;;3.70;1.17;;;23.50;69.30;;;;;;5015051;28;20030;-92
2022/07/17 10:53:07;;;;;;;4.82;1.23;;;23.50;69.60;;;;;;5002710;28;20105;-94
2022/07/17 10:55:35;;;;;;;4.03;1.40;;;23.60;69.50;;;;;;5010919;28;20034;-92
2022/07/17 10:58:00;;;;;;;3.28;1.52;;;23.70;69.10;;;;;;4998129;28;21028;-91
2022/07/17 11:00:27;;;;;;;3.70;1.45;;;23.70;68.40;;;;;;5020080;28;20037;-96
2022/07/17 11:02:53;;;;;;;5.70;1.55;;;23.70;67.40;;;;;;5022332;28;20030;-96
2022/07/17 11:05:19;;;;;;;5.15;1.67;;;23.80;67.40;;;;;;5018160;28;20056;-95
2022/07/17 11:07:56;;;;;;;5.57;1.33;;;23.80;67.80;;;;;;5022650;28;20026;-95
2022/07/17 11:10:25;;;;;;;8.05;1.48;;;23.90;67.70;;;;;;5007309;28;20466;-90
2022/07/17 11:12:52;;;;;;;3.63;1.10;;;23.90;68.80;;;;;;5015871;28;20018;-96
2022/07/17 11:15:18;;;;;;;3.13;1.38;;;24.00;69.10;;;;;;5020054;28;20041;-95
2022/07/17 11:17:48;;;;;;;6.20;1.50;;;24.10;69.40;;;;;;5011792;28;20079;-93
2022/07/17 11:20:15;;;;;;;5.68;2.38;;;24.10;68.50;;;;;;4990238;28;20101;-95
2022/07/17 11:22:42;;;;;;;6.50;1.80;;;24.20;68.50;;;;;;5003508;28;20085;-90
2022/07/17 11:25:09;;;;;;;3.38;1.48;;;24.20;67.70;;;;;;5012089;28;20036;-87
2022/07/17 11:27:36;;;;;;;4.28;1.60;;;24.30;67.00;;;;;;4994405;28;20030;-93
2022/07/17 11:30:04;;;;;;;4.22;1.27;;;24.30;67.40;;;;;;5012923;28;20037;-91
2022/07/17 11:32:38;;;;;;;4.15;1.40;;;24.40;66.10;;;;;;5004489;28;20077;-94
2022/07/17 11:35:17;;;;;;;6.50;1.40;;;24.50;65.90;;;;;;5004353;28;20478;-95
2022/07/17 11:37:43;;;;;;;7.67;2.03;;;24.50;65.80;;;;;;5014152;28;20057;-95
2022/07/17 11:40:09;;;;;;;3.75;1.50;;;24.60;65.40;;;;;;5009481;28;20300;-86
2022/07/17 11:42:37;;;;;;;3.60;1.17;;;24.60;65.00;;;;;;4979738;28;20034;-95
2022/07/17 11:45:04;;;;;;;5.72;1.23;;;24.70;64.90;;;;;;5017731;28;20032;-88
2022/07/17 11:47:29;;;;;;;5.95;1.45;;;24.70;64.80;;;;;;5022965;28;20026;-82
2022/07/17 11:50:10;;;;;;;5.03;1.40;;;24.80;63.80;;;;;;4979658;28;20030;-83
2022/07/17 11:52:50;;;;;;;5.18;1.60;;;24.80;64.20;;;;;;5009626;28;20080;-81
2022/07/17 11:55:16;;;;;;;4.72;1.50;;;24.90;64.30;;;;;;5013121;28;20106;-81
2022/07/17 11:57:50;;;;;;;6.90;1.48;;;25.00;63.60;;;;;;5010822;28;20109;-82
2022/07/17 12:00:19;;;;;;;4.90;1.63;;;25.00;62.50;;;;;;5011402;28;20060;-83
2022/07/17 12:02:45;;;;;;;5.25;1.48;;;25.10;62.40;;;;;;5015051;28;20403;-83
2022/07/17 12:05:11;;;;;;;5.03;1.35;;;25.10;62.60;;;;;;4998137;28;20037;-87
2022/07/17 12:07:47;;;;;;;4.53;1.25;;;25.20;63.20;;;;;;4997618;28;20393;-82
2022/07/17 12:10:20;;;;;;;2.97;1.42;;;25.30;63.10;;;;;;5023057;28;20113;-89
2022/07/17 12:13:01;;;;;;;4.28;1.30;;;25.30;63.20;;;;;;5020701;28;20018;-82
2022/07/17 12:15:51;;;;;;;3.22;1.33;;;25.50;63.40;;;;;;5014652;28;20468;-81
2022/07/17 12:18:24;;;;;;;4.97;1.63;;;25.50;62.60;;;;;;5012989;28;20531;-84
2022/07/17 12:20:52;;;;;;;4.22;1.52;;;25.60;62.60;;;;;;5013607;28;20029;-84
2022/07/17 12:23:31;;;;;;;4.50;1.88;;;25.60;62.70;;;;;;4998839;28;20029;-85
2022/07/17 12:26:12;;;;;;;4.57;1.60;;;25.70;62.80;;;;;;5010173;28;20049;-78
2022/07/17 12:28:38;;;;;;;5.32;1.70;;;25.80;62.10;;;;;;5015407;28;20479;-78
2022/07/17 12:31:06;;;;;;;8.38;1.98;;;25.90;62.20;;;;;;5016744;28;20030;-77
2022/07/17 12:33:32;;;;;;;6.53;1.60;;;26.00;62.50;;;;;;5016637;28;20053;-82
2022/07/17 12:35:58;;;;;;;3.60;1.25;;;26.00;62.40;;;;;;5014597;28;20045;-79
2022/07/17 12:38:24;;;;;;;3.65;1.50;;;26.10;63.20;;;;;;5016325;28;20029;-80
2022/07/17 12:40:49;;;;;;;2.30;1.15;;;26.20;62.50;;;;;;5015053;28;20048;-80
2022/07/17 12:43:15;;;;;;;4.38;1.50;;;26.30;62.50;;;;;;4980213;28;20033;-78
2022/07/17 12:45:40;;;;;;;8.63;1.52;;;26.30;62.70;;;;;;4980960;28;20078;-80
2022/07/17 12:48:06;;;;;;;5.00;1.63;;;26.40;61.00;;;;;;5011875;28;20033;-82